Nobleford, Canada
Current Conditions -  °F | °C
As of 7:00 AM on Friday 28 Nov 2014 (Local Time) from CYQL Reporting Station
Light Snow Light Snow  
Wind Chill:   Ceiling: 800
Heat Index: 10°   Visibility: 5mi
Dew Point:   Wind: 6mph
Humidity: 92%   Direction: 30°NNE
Pressure: 29.53"   Gusts: NA
Location:  49.88°N, 113.05°W
Report Text: CYQL 281400Z 03005KT 5SM -SN BR OVC008 M12/M13 A2953 RMK ST8 WND ESTD FROIN VIA CYXH SLP051
Loading
Personal Weather Stations






























Interactive Weather Map New forecast layout! Learn more

10-Day Weather Forecast

Advertisements
Track Severe Weather on mobile